createdAt,value
2019-03-12T00:00:49.156Z,101749.08
2019-03-12T00:03:52.969Z,101749.29
2019-03-12T00:06:56.772Z,101739.61
2019-03-12T00:10:00.572Z,101747.91
2019-03-12T00:13:04.472Z,101742.61
2019-03-12T00:16:08.346Z,101753.86
2019-03-12T00:19:12.149Z,101759.98
2019-03-12T00:22:15.952Z,101768.16
2019-03-12T00:25:19.757Z,101776.70
2019-03-12T00:28:23.725Z,101778.25
2019-03-12T00:31:27.619Z,101785.59
2019-03-12T00:34:31.411Z,101776.44
2019-03-12T00:37:35.322Z,101777.41
2019-03-12T00:40:39.143Z,101787.41
2019-03-12T00:43:42.963Z,101780.80
2019-03-12T00:46:46.763Z,101782.90
2019-03-12T00:49:50.651Z,101782.44
2019-03-12T00:52:54.627Z,101779.36
2019-03-12T00:55:58.506Z,101775.44
2019-03-12T00:59:02.318Z,101778.75
2019-03-12T01:02:15.918Z,101769.58
2019-03-12T01:05:19.798Z,101762.42
2019-03-12T01:08:23.640Z,101759.08
2019-03-12T01:11:27.535Z,101758.23
2019-03-12T01:14:31.350Z,101758.13
2019-03-12T01:17:35.138Z,101765.11
2019-03-12T01:20:38.963Z,101760.39
2019-03-12T01:23:42.798Z,101756.28
2019-03-12T01:26:46.664Z,101755.89
2019-03-12T01:29:50.548Z,101761.25
2019-03-12T01:32:54.366Z,101760.02
2019-03-12T01:35:58.200Z,101752.39
2019-03-12T01:39:02.002Z,101749.78
2019-03-12T01:42:05.968Z,101746.14
2019-03-12T01:45:11.320Z,101744.90
2019-03-12T01:48:15.137Z,101741.44
2019-03-12T01:51:18.965Z,101740.59
2019-03-12T01:54:22.764Z,101734.11
2019-03-12T01:57:26.592Z,101726.69
2019-03-12T02:00:30.400Z,101717.53
2019-03-12T02:03:34.309Z,101717.22
2019-03-12T02:06:38.125Z,101713.74
2019-03-12T02:09:42.049Z,101714.47
2019-03-12T02:12:45.910Z,101714.33
2019-03-12T02:15:49.732Z,101703.03
2019-03-12T02:18:53.523Z,101703.34
2019-03-12T02:21:57.415Z,101697.06
2019-03-12T02:25:01.251Z,101697.73
2019-03-12T02:28:05.784Z,101681.30
2019-03-12T02:31:09.662Z,101685.55
2019-03-12T02:34:13.619Z,101673.78
2019-03-12T02:37:17.421Z,101671.19
2019-03-12T02:40:21.327Z,101676.40
2019-03-12T02:43:25.136Z,101669.93
2019-03-12T02:46:28.967Z,101672.04
2019-03-12T02:49:32.826Z,101678.12
2019-03-12T02:52:36.645Z,101684.19
2019-03-12T02:55:40.511Z,101674.57
2019-03-12T02:58:44.297Z,101677.13
2019-03-12T03:01:48.099Z,101675.76
2019-03-12T03:04:54.220Z,101671.72
2019-03-12T03:08:00.364Z,101668.66
2019-03-12T03:11:04.271Z,101670.73
2019-03-12T03:14:43.304Z,101662.90
2019-03-12T03:17:47.202Z,101655.80
2019-03-12T03:20:51.112Z,101664.50
2019-03-12T03:23:54.905Z,101668.52
2019-03-12T03:26:58.824Z,101662.73
2019-03-12T03:30:02.718Z,101663.56
2019-03-12T03:33:06.638Z,101661.80
2019-03-12T03:36:10.479Z,101667.89
2019-03-12T03:39:14.355Z,101660.03
2019-03-12T03:42:18.522Z,101660.44
2019-03-12T03:45:22.501Z,101660.44
2019-03-12T03:48:26.321Z,101658.74
2019-03-12T03:51:30.157Z,101655.73
2019-03-12T03:54:33.968Z,101651.36
2019-03-12T03:57:37.853Z,101654.05
2019-03-12T04:00:41.745Z,101640.17
2019-03-12T04:03:45.631Z,101627.56
2019-03-12T04:06:49.451Z,101621.08
2019-03-12T04:09:53.373Z,101624.42
2019-03-12T04:12:57.274Z,101624.83
2019-03-12T04:16:01.144Z,101616.14
2019-03-12T04:19:05.018Z,101616.60
2019-03-12T04:22:08.841Z,101614.84
2019-03-12T04:25:13.042Z,101614.04
2019-03-12T04:28:16.823Z,101614.55
2019-03-12T04:31:20.631Z,101605.41
2019-03-12T04:34:36.821Z,101594.56
2019-03-12T04:37:40.666Z,101586.72
2019-03-12T04:40:44.499Z,101590.23
2019-03-12T04:43:48.320Z,101590.75
2019-03-12T04:46:52.227Z,101583.83
2019-03-12T04:49:56.042Z,101580.34
2019-03-12T04:52:59.861Z,101572.61
2019-03-12T04:56:03.672Z,101562.61
2019-03-12T04:59:07.632Z,101555.63
2019-03-12T05:02:11.458Z,101543.87
2019-03-12T05:05:15.438Z,101539.53
2019-03-12T05:08:19.336Z,101543.06
2019-03-12T05:11:23.243Z,101544.48
2019-03-12T05:14:31.627Z,101538.34
2019-03-12T05:17:35.976Z,101535.78
2019-03-12T05:20:39.781Z,101534.48
2019-03-12T05:23:43.668Z,101534.92
2019-03-12T05:26:47.468Z,101530.05
2019-03-12T05:29:51.291Z,101531.30
2019-03-12T05:32:55.096Z,101525.16
2019-03-12T05:35:59.001Z,101521.69
2019-03-12T05:39:03.741Z,101525.67
2019-03-12T05:42:07.580Z,101521.75
2019-03-12T05:45:11.900Z,101523.97
2019-03-12T05:48:15.726Z,101517.89
2019-03-12T05:51:19.516Z,101506.58
2019-03-12T05:54:23.421Z,101512.91
2019-03-12T05:57:27.217Z,101511.66
2019-03-12T06:00:31.034Z,101509.94
2019-03-12T06:03:34.825Z,101517.45
2019-03-12T06:06:38.721Z,101505.32
2019-03-12T06:09:42.560Z,101511.52
2019-03-12T06:12:46.375Z,101509.75
2019-03-12T06:15:53.118Z,101504.98
2019-03-12T06:18:55.794Z,101509.39
2019-03-12T06:21:59.682Z,101499.34
2019-03-12T06:25:03.580Z,101506.42
2019-03-12T06:28:07.385Z,101499.53
2019-03-12T06:31:19.561Z,101494.80
2019-03-12T06:34:31.194Z,101493.23
2019-03-12T06:37:41.120Z,101491.66
2019-03-12T06:41:03.041Z,101484.34
2019-03-12T06:44:15.880Z,101484.39
2019-03-12T06:47:53.820Z,101481.41
2019-03-12T06:51:13.498Z,101468.41
2019-03-12T06:54:36.326Z,101465.52
2019-03-12T06:58:22.281Z,101459.45
2019-03-12T07:01:43.632Z,101450.83
2019-03-12T07:05:03.661Z,101450.95
2019-03-12T07:08:38.618Z,101457.94
2019-03-12T07:11:52.774Z,101441.41
2019-03-12T07:15:15.562Z,101438.86
2019-03-12T07:18:32.318Z,101428.38
2019-03-12T07:21:58.609Z,101426.66
2019-03-12T07:25:24.614Z,101420.22
2019-03-12T07:28:50.196Z,101408.50
2019-03-12T07:31:59.097Z,101406.81
2019-03-12T07:35:27.894Z,101392.92
2019-03-12T07:39:08.961Z,101389.95
2019-03-12T07:42:30.418Z,101381.77
2019-03-12T07:45:52.641Z,101371.34
2019-03-12T07:49:08.749Z,101356.96
2019-03-12T07:52:46.906Z,101349.27
2019-03-12T07:56:24.791Z,101344.61
2019-03-12T08:00:02.661Z,101340.30
2019-03-12T08:03:30.252Z,101335.16
2019-03-12T08:06:41.503Z,101333.02
2019-03-12T08:09:55.970Z,101323.98
2019-03-12T08:13:27.709Z,101317.11
2019-03-12T08:17:02.553Z,101309.28
2019-03-12T08:20:35.178Z,101299.25
2019-03-12T08:24:13.899Z,101300.58
2019-03-12T08:27:36.937Z,101309.86
2019-03-12T08:30:45.648Z,101300.64
2019-03-12T08:33:59.221Z,101292.79
2019-03-12T08:37:25.051Z,101289.31
2019-03-12T08:40:52.515Z,101279.78
2019-03-12T08:44:08.184Z,101260.06
2019-03-12T08:47:18.423Z,101261.38
2019-03-12T08:50:34.013Z,101241.26
2019-03-12T08:53:52.046Z,101231.16
2019-03-12T08:57:14.851Z,101215.85
2019-03-12T09:00:40.724Z,101213.72
2019-03-12T09:04:01.130Z,101211.06
2019-03-12T09:07:30.282Z,101204.48
2019-03-12T09:10:43.663Z,101207.57
2019-03-12T09:14:05.167Z,101204.07
2019-03-12T09:17:18.755Z,101183.09
2019-03-12T09:21:00.052Z,101188.78
2019-03-12T09:24:31.629Z,101183.55
2019-03-12T09:27:54.674Z,101177.88
2019-03-12T09:31:10.543Z,101166.48
2019-03-12T09:34:23.051Z,101158.59
2019-03-12T09:37:40.254Z,101141.53
2019-03-12T09:41:14.993Z,101125.75
2019-03-12T09:44:37.818Z,101112.59
2019-03-12T09:48:00.640Z,101103.83
2019-03-12T09:51:09.334Z,101100.33
2019-03-12T09:54:29.842Z,101083.63
2019-03-12T09:57:53.593Z,101082.32
2019-03-12T10:01:22.769Z,101077.92
2019-03-12T10:04:44.238Z,101059.08
2019-03-12T10:07:54.589Z,101057.29
2019-03-12T10:11:04.728Z,101042.78
2019-03-12T10:14:34.374Z,101037.11
2019-03-12T10:17:56.196Z,101037.16
2019-03-12T10:21:19.227Z,101029.20
2019-03-12T10:24:54.160Z,101020.44
2019-03-12T10:28:17.050Z,101010.39
2019-03-12T10:31:55.346Z,101002.08
2019-03-12T10:35:14.864Z,100999.87
2019-03-12T10:39:02.375Z,100986.73
2019-03-12T10:42:13.329Z,100984.47
2019-03-12T10:45:22.061Z,100980.18
2019-03-12T10:48:26.162Z,100962.63
2019-03-12T10:51:30.254Z,100956.95
2019-03-12T10:54:34.077Z,100943.35
2019-03-12T10:57:38.012Z,100944.70
2019-03-12T11:00:42.064Z,100929.38
2019-03-12T11:03:45.957Z,100932.88
2019-03-12T11:06:49.937Z,100918.43
2019-03-12T11:09:53.783Z,100920.61
2019-03-12T11:12:57.586Z,100909.19
2019-03-12T11:16:01.418Z,100906.59
2019-03-12T11:19:05.394Z,100909.73
2019-03-12T11:22:09.361Z,100902.23
2019-03-12T11:25:26.032Z,100897.88
2019-03-12T11:28:18.995Z,100882.95
2019-03-12T11:31:22.990Z,100875.53
2019-03-12T11:34:26.884Z,100867.20
2019-03-12T11:37:30.769Z,100856.20
2019-03-12T11:40:34.647Z,100847.44
2019-03-12T11:43:38.540Z,100847.89
2019-03-12T11:46:45.743Z,100837.84
2019-03-12T11:49:48.017Z,100821.16
2019-03-12T11:52:55.483Z,100813.31
2019-03-12T11:55:57.576Z,100797.48
2019-03-12T11:59:01.469Z,100789.17
2019-03-12T12:02:05.883Z,100769.74
2019-03-12T12:05:09.898Z,100747.91
2019-03-12T12:08:13.737Z,100738.68
2019-03-12T12:11:17.701Z,100722.91
2019-03-12T12:14:21.753Z,100697.89
2019-03-12T12:17:25.578Z,100688.26
2019-03-12T12:20:30.547Z,100682.16
2019-03-12T12:23:34.567Z,100666.78
2019-03-12T12:26:38.457Z,100669.76
2019-03-12T12:29:42.255Z,100658.89
2019-03-12T12:32:46.176Z,100646.12
2019-03-12T12:35:49.977Z,100642.66
2019-03-12T12:38:53.868Z,100626.91
2019-03-12T12:41:57.769Z,100614.65
2019-03-12T12:45:01.633Z,100607.94
2019-03-12T12:48:05.552Z,100607.05
2019-03-12T12:51:09.358Z,100595.32
2019-03-12T12:54:13.160Z,100593.11
2019-03-12T12:57:16.968Z,100590.06
2019-03-12T13:00:21.436Z,100587.29
2019-03-12T13:03:25.309Z,100580.78
2019-03-12T13:06:29.183Z,100574.70
2019-03-12T13:09:33.083Z,100568.59
2019-03-12T13:12:36.975Z,100553.23
2019-03-12T13:15:40.858Z,100557.08
2019-03-12T13:18:44.729Z,100543.96
2019-03-12T13:21:48.649Z,100539.13
2019-03-12T13:24:52.454Z,100529.53
2019-03-12T13:27:56.348Z,100519.94
2019-03-12T13:31:00.212Z,100515.53
2019-03-12T13:34:04.200Z,100508.95
2019-03-12T13:37:08.086Z,100495.30
2019-03-12T13:40:13.620Z,100482.20
2019-03-12T13:43:17.513Z,100477.28
2019-03-12T13:46:21.330Z,100471.25
2019-03-12T13:49:25.136Z,100455.00
2019-03-12T13:52:29.089Z,100456.36
2019-03-12T13:55:33.353Z,100440.96
2019-03-12T13:58:37.322Z,100432.56
2019-03-12T14:01:41.238Z,100421.70
2019-03-12T14:04:45.041Z,100406.81
2019-03-12T14:07:49.008Z,100398.92
2019-03-12T14:10:52.794Z,100391.45
2019-03-12T14:13:56.668Z,100380.84
2019-03-12T14:17:00.619Z,100367.74
2019-03-12T14:20:28.021Z,100369.84
2019-03-12T14:23:40.524Z,100361.06
2019-03-12T14:26:44.312Z,100353.86
2019-03-12T14:29:48.202Z,100339.08
2019-03-12T14:32:52.052Z,100332.71
2019-03-12T14:35:55.945Z,100320.44
2019-03-12T14:38:59.917Z,100317.28
2019-03-12T14:42:03.845Z,100304.12
2019-03-12T14:45:11.855Z,100299.34
2019-03-12T14:48:37.721Z,100286.08
2019-03-12T14:51:56.849Z,100275.02
2019-03-12T14:55:00.664Z,100268.08
2019-03-12T14:58:04.571Z,100266.22
2019-03-12T15:01:08.519Z,100264.95
2019-03-12T15:04:14.861Z,100250.90
2019-03-12T15:07:18.615Z,100247.30
2019-03-12T15:10:22.559Z,100234.43
2019-03-12T15:13:26.373Z,100243.77
2019-03-12T15:16:30.200Z,100221.76
2019-03-12T15:19:34.028Z,100223.25
2019-03-12T15:22:37.866Z,100218.65
2019-03-12T15:25:41.721Z,100204.29
2019-03-12T15:28:45.535Z,100193.13
2019-03-12T15:31:49.411Z,100188.55
2019-03-12T15:34:53.277Z,100162.47
2019-03-12T15:37:57.127Z,100170.91
2019-03-12T15:41:00.940Z,100149.55
2019-03-12T15:44:04.915Z,100129.81
2019-03-12T15:47:09.008Z,100118.53
2019-03-12T15:50:13.339Z,100106.56
2019-03-12T15:53:17.314Z,100090.34
2019-03-12T15:56:21.121Z,100087.16
2019-03-12T15:59:24.951Z,100074.06
2019-03-12T16:02:28.833Z,100048.45
2019-03-12T16:05:32.649Z,100035.56
2019-03-12T16:08:36.465Z,100025.39
2019-03-12T16:11:40.279Z,100025.93
2019-03-12T16:14:44.124Z,100017.56
2019-03-12T16:17:48.011Z,99997.24
2019-03-12T16:20:52.003Z,99990.06
2019-03-12T16:23:55.798Z,99983.59
2019-03-12T16:27:02.842Z,99971.26
2019-03-12T16:30:06.564Z,99964.26
2019-03-12T16:33:10.458Z,99954.29
2019-03-12T16:36:14.373Z,99955.27
2019-03-12T16:39:18.182Z,99947.78
2019-03-12T16:42:34.301Z,99943.05
2019-03-12T16:45:27.667Z,99930.33
2019-03-12T16:48:31.448Z,99915.21
2019-03-12T16:51:35.361Z,99915.36
2019-03-12T16:54:39.191Z,99901.37
2019-03-12T16:57:43.199Z,99890.79
2019-03-12T17:00:47.057Z,99890.52
2019-03-12T17:03:51.047Z,99883.91
2019-03-12T17:06:54.958Z,99873.33
2019-03-12T17:09:58.772Z,99869.61
2019-03-12T17:13:02.585Z,99868.78
2019-03-12T17:16:06.400Z,99865.78
2019-03-12T17:19:10.219Z,99854.72
2019-03-12T17:22:14.093Z,99850.85
2019-03-12T17:25:18.005Z,99836.71
2019-03-12T17:28:21.807Z,99829.80
2019-03-12T17:31:25.613Z,99813.93
2019-03-12T17:34:35.788Z,99813.88
2019-03-12T17:37:34.962Z,99798.42
2019-03-12T17:40:38.845Z,99794.80
2019-03-12T17:43:42.656Z,99786.73
2019-03-12T17:46:47.133Z,99773.27
2019-03-12T17:49:50.910Z,99763.31
2019-03-12T17:52:54.741Z,99749.62
2019-03-12T17:55:58.551Z,99739.56
2019-03-12T17:59:02.530Z,99740.95
2019-03-12T18:02:06.590Z,99729.44
2019-03-12T18:05:10.905Z,99717.08
2019-03-12T18:08:14.717Z,99714.91
2019-03-12T18:11:18.649Z,99699.06
2019-03-12T18:14:22.456Z,99703.23
2019-03-12T18:17:26.276Z,99707.04
2019-03-12T18:20:30.099Z,99701.70
2019-03-12T18:23:33.925Z,99694.02
2019-03-12T18:26:37.736Z,99698.48
2019-03-12T18:29:41.596Z,99685.06
2019-03-12T18:32:45.538Z,99696.81
2019-03-12T18:35:49.375Z,99679.95
2019-03-12T18:38:53.252Z,99677.45
2019-03-12T18:41:57.045Z,99679.71
2019-03-12T18:45:00.830Z,99674.45
2019-03-12T18:48:04.856Z,99657.41
2019-03-12T18:51:08.635Z,99650.00
2019-03-12T18:54:12.439Z,99648.45
2019-03-12T18:57:16.252Z,99637.98
2019-03-12T19:00:20.069Z,99628.28
2019-03-12T19:03:23.868Z,99622.63
2019-03-12T19:06:27.696Z,99617.28
2019-03-12T19:09:31.507Z,99607.75
2019-03-12T19:12:35.311Z,99594.80
2019-03-12T19:15:39.260Z,99595.32
2019-03-12T19:18:43.275Z,99590.76
2019-03-12T19:21:47.169Z,99582.39
2019-03-12T19:24:51.023Z,99584.91
2019-03-12T19:27:59.850Z,99582.80
2019-03-12T19:31:14.157Z,99577.59
2019-03-12T19:34:24.713Z,99577.72
2019-03-12T19:37:28.609Z,99570.79
2019-03-12T19:40:32.998Z,99569.41
2019-03-12T19:43:36.885Z,99554.25
2019-03-12T19:46:40.854Z,99544.72
2019-03-12T19:49:44.682Z,99538.30
2019-03-12T19:52:48.622Z,99536.80
2019-03-12T19:55:52.555Z,99536.92
2019-03-12T19:58:56.431Z,99517.20
2019-03-12T20:02:15.257Z,99520.92
2019-03-12T20:05:09.443Z,99506.03
2019-03-12T20:08:13.237Z,99506.94
2019-03-12T20:11:54.639Z,99495.34
2019-03-12T20:15:44.000Z,99482.50
2019-03-12T20:19:56.251Z,99471.03
2019-03-12T20:23:30.255Z,99460.73
2019-03-12T20:27:05.173Z,99435.58
2019-03-12T20:30:52.468Z,99431.60
2019-03-12T20:34:40.355Z,99420.27
2019-03-12T20:38:30.378Z,99411.75
2019-03-12T20:42:29.824Z,99400.34
2019-03-12T20:46:09.815Z,99401.45
2019-03-12T20:49:47.829Z,99391.46
2019-03-12T20:53:34.657Z,99394.50
2019-03-12T20:57:25.909Z,99380.44
2019-03-12T21:01:35.250Z,99360.84
2019-03-12T21:05:29.161Z,99367.38
2019-03-12T21:09:10.088Z,99334.38
2019-03-12T21:13:10.415Z,99331.88
2019-03-12T21:16:52.513Z,99320.27
2019-03-12T21:20:23.213Z,99303.21
2019-03-12T21:23:49.794Z,99294.55
2019-03-12T21:27:24.850Z,99290.02
2019-03-12T21:30:28.783Z,99283.85
2019-03-12T21:33:32.567Z,99279.47
2019-03-12T21:36:36.455Z,99281.09
2019-03-12T21:39:54.064Z,99272.13
2019-03-12T21:42:45.928Z,99266.34
2019-03-12T21:45:49.894Z,99270.06
2019-03-12T21:48:53.774Z,99255.91
2019-03-12T21:51:57.571Z,99254.14
2019-03-12T21:55:01.413Z,99241.81
2019-03-12T21:58:05.341Z,99227.66
2019-03-12T22:01:09.253Z,99228.73
2019-03-12T22:04:13.076Z,99214.10
2019-03-12T22:07:16.870Z,99212.69
2019-03-12T22:10:20.746Z,99208.81
2019-03-12T22:13:24.536Z,99201.99
2019-03-12T22:16:28.345Z,99191.95
2019-03-12T22:19:32.141Z,99195.45
2019-03-12T22:23:00.345Z,99187.20
2019-03-12T22:26:04.224Z,99181.66
2019-03-12T22:29:08.028Z,99175.33
2019-03-12T22:32:12.019Z,99172.16
2019-03-12T22:35:15.830Z,99157.22
2019-03-12T22:38:19.657Z,99166.93
2019-03-12T22:41:23.435Z,99143.73
2019-03-12T22:44:27.259Z,99140.37
2019-03-12T22:47:31.116Z,99137.86
2019-03-12T22:50:34.947Z,99137.75
2019-03-12T22:53:38.801Z,99121.57
2019-03-12T22:56:42.898Z,99120.36
2019-03-12T22:59:46.697Z,99115.91
2019-03-12T23:02:50.520Z,99092.23
2019-03-12T23:05:54.468Z,99106.19
2019-03-12T23:08:58.534Z,99084.60
2019-03-12T23:12:02.505Z,99089.20
2019-03-12T23:15:07.983Z,99084.64
2019-03-12T23:18:11.946Z,99083.33
2019-03-12T23:21:15.907Z,99088.70
2019-03-12T23:24:19.714Z,99077.15
2019-03-12T23:27:23.523Z,99095.67
2019-03-12T23:30:28.895Z,99123.28
2019-03-12T23:33:32.959Z,99123.58
2019-03-12T23:36:36.878Z,99151.85
2019-03-12T23:39:40.737Z,99157.59
2019-03-12T23:42:44.784Z,99165.41
2019-03-12T23:45:48.653Z,99165.83
2019-03-12T23:48:52.449Z,99176.19
2019-03-12T23:51:56.606Z,99177.07
2019-03-12T23:55:00.471Z,99183.54
2019-03-12T23:58:04.473Z,99190.58
